createdAt,value
2019-05-02T00:00:14.241Z,13.30
2019-05-02T00:02:45.466Z,15.20
2019-05-02T00:05:18.026Z,13.10
2019-05-02T00:07:48.827Z,13.47
2019-05-02T00:10:24.485Z,14.67
2019-05-02T00:12:53.049Z,13.53
2019-05-02T00:15:23.878Z,14.43
2019-05-02T00:17:56.829Z,13.97
2019-05-02T00:20:28.872Z,14.63
2019-05-02T00:22:59.669Z,13.73
2019-05-02T00:25:31.514Z,15.67
2019-05-02T00:28:02.653Z,14.17
2019-05-02T00:30:34.686Z,15.50
2019-05-02T00:33:06.243Z,16.07
2019-05-02T00:35:40.973Z,14.67
2019-05-02T00:38:09.589Z,15.60
2019-05-02T00:40:40.380Z,14.70
2019-05-02T00:43:11.335Z,15.23
2019-05-02T00:45:42.224Z,14.20
2019-05-02T00:48:35.925Z,13.90
2019-05-02T00:51:06.668Z,14.37
2019-05-02T00:53:38.526Z,14.47
2019-05-02T00:56:10.403Z,15.50
2019-05-02T00:58:41.294Z,15.50
2019-05-02T01:04:33.784Z,15.10
2019-05-02T01:07:05.156Z,14.37
2019-05-02T01:09:35.966Z,14.73
2019-05-02T01:12:08.449Z,15.17
2019-05-02T01:14:39.391Z,15.50
2019-05-02T01:17:10.251Z,14.33
2019-05-02T01:19:41.288Z,14.27
2019-05-02T01:22:16.032Z,15.50
2019-05-02T01:24:46.503Z,14.93
2019-05-02T01:27:36.041Z,14.27
2019-05-02T01:30:37.133Z,14.53
2019-05-02T01:33:25.326Z,15.23
2019-05-02T01:36:07.997Z,14.20
2019-05-02T01:38:42.541Z,15.07
2019-05-02T01:41:13.313Z,15.70
2019-05-02T01:43:44.099Z,15.57
2019-05-02T01:46:20.459Z,15.30
2019-05-02T01:48:47.761Z,14.93
2019-05-02T01:51:18.745Z,15.37
2019-05-02T01:53:49.536Z,15.23
2019-05-02T01:56:20.307Z,13.83
2019-05-02T01:58:53.116Z,13.87
2019-05-02T02:01:23.693Z,13.50
2019-05-02T02:03:54.455Z,14.07
2019-05-02T02:06:25.350Z,14.77
2019-05-02T02:08:57.626Z,13.70
2019-05-02T02:11:33.687Z,13.90
2019-05-02T02:14:00.983Z,13.93
2019-05-02T02:16:35.298Z,14.93
2019-05-02T02:19:13.922Z,15.20
2019-05-02T02:22:04.422Z,15.20
2019-05-02T02:24:39.417Z,12.93
2019-05-02T02:27:10.324Z,13.97
2019-05-02T02:29:44.068Z,16.50
2019-05-02T02:32:19.921Z,15.10
2019-05-02T02:34:46.272Z,16.93
2019-05-02T02:37:17.188Z,16.33
2019-05-02T02:39:48.379Z,17.33
2019-05-02T02:42:24.962Z,16.50
2019-05-02T02:45:00.010Z,17.03
2019-05-02T02:47:31.223Z,16.53
2019-05-02T02:50:03.048Z,15.90
2019-05-02T02:52:37.727Z,15.83
2019-05-02T02:55:07.211Z,15.70
2019-05-02T02:57:37.985Z,16.50
2019-05-02T03:00:11.141Z,17.43
2019-05-02T03:02:47.592Z,16.03
2019-05-02T03:05:18.745Z,16.53
2019-05-02T03:07:46.512Z,16.20
2019-05-02T03:10:18.381Z,18.13
2019-05-02T03:13:07.883Z,17.50
2019-05-02T03:15:44.065Z,17.57
2019-05-02T03:18:15.021Z,16.37
2019-05-02T03:20:45.802Z,16.90
2019-05-02T03:23:21.677Z,17.20
2019-05-02T03:25:51.377Z,18.13
2019-05-02T03:28:22.570Z,16.93
2019-05-02T03:30:53.407Z,18.10
2019-05-02T03:33:25.117Z,18.27
2019-05-02T03:35:55.956Z,17.73
2019-05-02T03:38:33.038Z,19.40
2019-05-02T03:41:00.254Z,20.07
2019-05-02T03:43:31.092Z,18.53
2019-05-02T03:46:02.275Z,19.43
2019-05-02T03:48:33.119Z,19.93
2019-05-02T03:51:05.187Z,18.50
2019-05-02T03:53:36.692Z,18.73
2019-05-02T03:56:11.667Z,18.30
2019-05-02T03:58:41.124Z,18.27
2019-05-02T04:01:11.939Z,18.57
2019-05-02T04:03:43.837Z,18.43
2019-05-02T04:06:21.036Z,16.40
2019-05-02T04:08:58.695Z,18.20
2019-05-02T04:11:25.842Z,18.40
2019-05-02T04:13:57.561Z,18.60
2019-05-02T04:16:29.964Z,18.30
2019-05-02T04:19:07.291Z,19.67
2019-05-02T04:21:38.546Z,20.33
2019-05-02T04:24:15.723Z,19.37
2019-05-02T04:26:53.939Z,21.00
2019-05-02T04:29:17.881Z,19.43
2019-05-02T04:31:48.684Z,22.43
2019-05-02T04:34:19.591Z,21.00
2019-05-02T04:36:59.780Z,21.73
2019-05-02T04:39:22.912Z,20.93
2019-05-02T04:41:53.721Z,19.20
2019-05-02T04:44:29.822Z,19.67
2019-05-02T04:47:09.961Z,18.70
2019-05-02T04:49:35.652Z,19.30
2019-05-02T04:52:07.885Z,19.90
2019-05-02T04:54:38.941Z,20.07
2019-05-02T04:57:09.359Z,20.37
2019-05-02T04:59:40.198Z,21.07
2019-05-02T05:02:11.182Z,20.63
2019-05-02T05:04:48.656Z,20.67
2019-05-02T05:07:17.749Z,21.00
2019-05-02T05:09:56.994Z,21.27
2019-05-02T05:12:22.332Z,21.70
2019-05-02T05:14:53.178Z,22.93
2019-05-02T05:17:25.164Z,21.67
2019-05-02T05:19:57.692Z,23.30
2019-05-02T05:22:28.969Z,22.40
2019-05-02T05:25:12.177Z,21.83
2019-05-02T05:27:40.421Z,21.77
2019-05-02T05:30:15.645Z,21.53
2019-05-02T05:32:43.863Z,21.83
2019-05-02T05:35:17.737Z,19.33
2019-05-02T05:37:52.957Z,19.20
2019-05-02T05:40:22.743Z,20.03
2019-05-02T05:42:53.663Z,23.43
2019-05-02T05:45:24.611Z,22.93
2019-05-02T05:47:57.534Z,21.30
2019-05-02T05:50:32.191Z,22.30
2019-05-02T05:53:02.239Z,20.43
2019-05-02T05:55:34.226Z,21.57
2019-05-02T05:58:12.484Z,21.57
2019-05-02T06:00:38.014Z,21.00
2019-05-02T06:03:13.749Z,21.57
2019-05-02T06:05:42.315Z,21.87
2019-05-02T06:08:13.863Z,22.37
2019-05-02T06:10:45.864Z,23.90
2019-05-02T06:13:16.792Z,24.00
2019-05-02T06:15:47.585Z,22.57
2019-05-02T06:18:18.363Z,24.07
2019-05-02T06:20:49.368Z,24.50
2019-05-02T06:23:20.327Z,24.57
2019-05-02T06:25:51.092Z,26.13
2019-05-02T06:28:23.072Z,27.77
2019-05-02T06:30:53.838Z,26.60
2019-05-02T06:33:26.013Z,28.13
2019-05-02T06:36:01.114Z,25.33
2019-05-02T06:38:29.647Z,26.60
2019-05-02T06:41:00.465Z,26.60
2019-05-02T06:43:31.330Z,23.97
2019-05-02T06:46:15.233Z,25.23
2019-05-02T06:48:34.679Z,26.13
2019-05-02T06:51:10.973Z,25.50
2019-05-02T06:53:47.078Z,25.53
2019-05-02T06:56:14.192Z,25.67
2019-05-02T06:58:46.291Z,25.87
2019-05-02T07:01:21.265Z,25.37
2019-05-02T07:03:49.909Z,25.30
2019-05-02T07:06:21.809Z,24.43
2019-05-02T07:08:52.672Z,24.10
2019-05-02T07:11:23.738Z,23.17
2019-05-02T07:13:54.690Z,22.03
2019-05-02T07:16:38.642Z,21.77
2019-05-02T07:19:27.342Z,22.73
2019-05-02T07:22:03.783Z,22.53
2019-05-02T07:24:32.649Z,22.67
2019-05-02T07:27:03.700Z,21.97
2019-05-02T07:29:35.691Z,23.53
2019-05-02T07:32:06.877Z,21.50
2019-05-02T07:34:37.880Z,22.20
2019-05-02T07:37:12.645Z,20.83
2019-05-02T07:39:42.612Z,21.97
2019-05-02T07:42:13.578Z,21.33
2019-05-02T07:44:45.431Z,21.60
2019-05-02T07:47:16.330Z,20.10
2019-05-02T07:49:47.182Z,19.10
2019-05-02T07:52:18.111Z,21.80
2019-05-02T07:54:48.934Z,20.47
2019-05-02T07:57:19.708Z,20.10
2019-05-02T07:59:54.974Z,22.57
2019-05-02T08:02:25.157Z,21.67
2019-05-02T08:04:56.383Z,23.30
2019-05-02T08:07:34.058Z,20.70
2019-05-02T08:09:59.687Z,20.63
2019-05-02T08:12:30.508Z,20.77
2019-05-02T08:15:01.377Z,19.97
2019-05-02T08:17:34.796Z,22.03
2019-05-02T08:20:08.532Z,21.00
2019-05-02T08:22:39.121Z,21.53
2019-05-02T08:25:12.145Z,22.57
2019-05-02T08:28:05.116Z,22.33
2019-05-02T08:30:41.913Z,23.37
2019-05-02T08:33:15.849Z,23.47
2019-05-02T08:35:46.991Z,23.80
2019-05-02T08:38:18.975Z,22.53
2019-05-02T08:40:50.030Z,23.83
2019-05-02T08:43:20.969Z,24.73
2019-05-02T08:45:51.895Z,25.37
2019-05-02T08:48:22.879Z,24.97
2019-05-02T08:50:53.756Z,25.10
2019-05-02T08:53:24.701Z,24.27
2019-05-02T08:55:55.649Z,23.83
2019-05-02T08:58:26.462Z,23.80
2019-05-02T09:00:57.356Z,23.63
2019-05-02T09:03:28.235Z,23.07
2019-05-02T09:06:05.584Z,23.60
2019-05-02T09:08:31.733Z,22.43
2019-05-02T09:11:02.588Z,22.37
2019-05-02T09:13:33.516Z,21.77
2019-05-02T09:16:06.003Z,20.57
2019-05-02T09:18:44.826Z,21.50
2019-05-02T09:21:12.479Z,19.80
2019-05-02T09:23:44.007Z,20.87
2019-05-02T09:26:15.128Z,21.90
2019-05-02T09:28:46.227Z,20.97
2019-05-02T09:31:17.219Z,21.20
2019-05-02T09:33:49.278Z,19.00
2019-05-02T09:36:20.218Z,20.20
2019-05-02T09:38:55.964Z,20.17
2019-05-02T09:41:26.930Z,20.77
2019-05-02T09:43:56.445Z,19.53
2019-05-02T09:46:27.380Z,19.20
2019-05-02T09:49:04.313Z,20.20
2019-05-02T09:51:32.548Z,21.60
2019-05-02T09:54:06.297Z,20.50
2019-05-02T09:56:36.117Z,20.57
2019-05-02T09:59:25.922Z,19.10
2019-05-02T10:01:43.848Z,20.73
2019-05-02T10:04:14.884Z,20.13
2019-05-02T10:06:45.709Z,19.37
2019-05-02T10:09:18.837Z,18.80
2019-05-02T10:11:49.400Z,20.93
2019-05-02T10:14:22.404Z,20.50
2019-05-02T10:16:53.183Z,19.70
2019-05-02T10:19:26.124Z,19.23
2019-05-02T10:21:57.688Z,18.73
2019-05-02T10:24:29.438Z,19.10
2019-05-02T10:27:04.304Z,20.70
2019-05-02T10:29:33.153Z,18.87
2019-05-02T10:32:07.637Z,18.70
2019-05-02T10:34:36.674Z,20.20
2019-05-02T10:37:07.532Z,19.17
2019-05-02T10:39:38.437Z,20.30
2019-05-02T10:42:12.500Z,20.57
2019-05-02T10:44:43.527Z,21.07
2019-05-02T10:47:14.485Z,18.47
2019-05-02T10:49:53.187Z,18.23
2019-05-02T10:52:29.454Z,18.57
2019-05-02T10:54:57.575Z,18.63
2019-05-02T10:57:28.437Z,16.37
2019-05-02T11:00:00.435Z,20.00
2019-05-02T11:02:53.413Z,17.40
2019-05-02T11:05:26.599Z,19.00
2019-05-02T11:08:04.633Z,18.50
2019-05-02T11:10:32.172Z,17.07
2019-05-02T11:13:22.696Z,17.87
2019-05-02T11:16:27.734Z,17.17
2019-05-02T11:19:07.649Z,19.43
2019-05-02T11:21:38.745Z,18.63
2019-05-02T11:24:13.786Z,17.93
2019-05-02T11:26:45.721Z,18.67
2019-05-02T11:29:16.647Z,17.87
2019-05-02T11:31:47.509Z,20.30
2019-05-02T11:34:18.293Z,18.23
2019-05-02T11:36:49.358Z,19.43
2019-05-02T11:39:27.753Z,19.07
2019-05-02T11:41:53.226Z,20.50
2019-05-02T11:44:24.035Z,19.20
2019-05-02T11:46:54.931Z,20.77
2019-05-02T11:49:25.896Z,17.70
2019-05-02T11:51:57.294Z,19.20
2019-05-02T11:54:28.288Z,18.30
2019-05-02T11:56:59.080Z,20.43
2019-05-02T11:59:31.842Z,20.03
2019-05-02T12:02:17.566Z,19.77
2019-05-02T12:04:47.434Z,17.67
2019-05-02T12:07:16.913Z,19.37
2019-05-02T12:09:55.478Z,17.57
2019-05-02T12:12:20.338Z,18.17
2019-05-02T12:14:52.719Z,19.77
2019-05-02T12:17:24.772Z,20.30
2019-05-02T12:19:55.713Z,18.20
2019-05-02T12:22:26.544Z,18.17
2019-05-02T12:24:57.424Z,16.43
2019-05-02T12:27:28.311Z,17.87
2019-05-02T12:29:59.377Z,18.07
2019-05-02T12:32:30.683Z,18.03
2019-05-02T12:35:02.467Z,18.40
2019-05-02T12:37:33.527Z,17.73
2019-05-02T12:40:04.694Z,18.47
2019-05-02T12:42:35.946Z,18.33
2019-05-02T12:45:07.098Z,18.63
2019-05-02T12:47:39.103Z,18.10
2019-05-02T12:50:11.990Z,17.67
2019-05-02T12:52:44.823Z,17.67
2019-05-02T12:55:15.928Z,17.07
2019-05-02T12:57:46.910Z,17.37
2019-05-02T13:00:18.782Z,17.33
2019-05-02T13:02:56.245Z,16.40
2019-05-02T13:05:27.168Z,16.70
2019-05-02T13:07:57.995Z,16.47
2019-05-02T13:11:01.886Z,16.77
2019-05-02T13:13:27.540Z,16.47
2019-05-02T13:16:00.725Z,17.07
2019-05-02T13:18:34.748Z,17.33
2019-05-02T13:21:08.192Z,17.80
2019-05-02T13:23:54.965Z,17.43
2019-05-02T13:26:27.365Z,18.27
2019-05-02T13:29:00.174Z,18.13
2019-05-02T13:31:39.146Z,17.97
2019-05-02T13:34:33.891Z,19.13
2019-05-02T13:37:05.756Z,19.47
2019-05-02T13:39:46.920Z,19.30
2019-05-02T13:42:18.832Z,18.93
2019-05-02T13:45:02.322Z,21.17
2019-05-02T13:47:34.565Z,20.77
2019-05-02T13:50:06.494Z,22.07
2019-05-02T13:52:37.397Z,21.40
2019-05-02T13:55:11.815Z,22.13
2019-05-02T13:57:46.957Z,22.07
2019-05-02T14:00:22.288Z,22.87
2019-05-02T14:02:53.633Z,21.07
2019-05-02T14:05:24.417Z,22.93
2019-05-02T14:08:12.533Z,22.63
2019-05-02T14:10:44.260Z,20.83
2019-05-02T14:13:15.083Z,21.87
2019-05-02T14:15:45.967Z,22.70
2019-05-02T14:18:16.761Z,24.23
2019-05-02T14:20:47.713Z,24.03
2019-05-02T14:23:18.683Z,25.10
2019-05-02T14:25:49.515Z,25.13
2019-05-02T14:28:22.263Z,25.80
2019-05-02T14:30:52.879Z,25.17
2019-05-02T14:33:26.436Z,25.23
2019-05-02T14:35:57.221Z,26.07
2019-05-02T14:38:28.124Z,27.30
2019-05-02T14:41:12.991Z,27.73
2019-05-02T14:43:56.590Z,27.23
2019-05-02T14:46:34.243Z,27.33
2019-05-02T14:49:02.525Z,28.27
2019-05-02T14:51:36.578Z,28.67
2019-05-02T14:54:08.581Z,30.23
2019-05-02T14:56:57.231Z,30.53
2019-05-02T14:59:28.974Z,28.97
2019-05-02T15:02:05.772Z,30.07
2019-05-02T15:04:38.143Z,29.67
2019-05-02T15:07:07.839Z,30.27
2019-05-02T15:09:41.743Z,28.80
2019-05-02T15:12:15.815Z,31.83
2019-05-02T15:14:49.827Z,31.17
2019-05-02T15:17:17.490Z,30.70
2019-05-02T15:19:48.306Z,30.20
2019-05-02T15:22:20.287Z,29.73
2019-05-02T15:24:52.985Z,28.10
2019-05-02T15:27:23.760Z,29.67
2019-05-02T15:30:00.905Z,30.57
2019-05-02T15:32:37.267Z,28.67
2019-05-02T15:35:17.670Z,31.37
2019-05-02T15:37:46.987Z,31.53
2019-05-02T15:42:56.627Z,28.80
2019-05-02T15:45:26.360Z,27.53
2019-05-02T15:47:57.301Z,25.60
2019-05-02T15:50:28.231Z,26.70
2019-05-02T15:53:09.936Z,23.63
2019-05-02T15:55:39.707Z,24.90
2019-05-02T15:58:22.994Z,23.73
2019-05-02T16:01:07.320Z,24.60
2019-05-02T16:03:46.540Z,24.13
2019-05-02T16:06:24.334Z,23.40
2019-05-02T16:08:52.076Z,24.17
2019-05-02T16:11:23.192Z,22.90
2019-05-02T16:13:56.009Z,24.87
2019-05-02T16:16:27.179Z,24.00
2019-05-02T16:18:58.139Z,22.07
2019-05-02T16:21:38.399Z,20.57
2019-05-02T16:24:23.134Z,20.17
2019-05-02T16:26:57.122Z,19.80
2019-05-02T16:29:29.113Z,17.67
2019-05-02T16:32:06.404Z,19.33
2019-05-02T16:34:54.157Z,18.20
2019-05-02T16:37:23.666Z,19.53
2019-05-02T16:39:54.793Z,19.27
2019-05-02T16:42:25.877Z,18.80
2019-05-02T16:44:56.768Z,19.00
2019-05-02T16:47:27.768Z,18.60
2019-05-02T16:49:58.574Z,18.97
2019-05-02T16:52:29.420Z,20.03
2019-05-02T16:55:00.369Z,19.07
2019-05-02T16:57:34.858Z,20.27
2019-05-02T17:00:06.332Z,21.00
2019-05-02T17:02:43.610Z,19.73
2019-05-02T17:05:12.058Z,19.43
2019-05-02T17:08:02.280Z,21.00
2019-05-02T17:10:52.345Z,21.07
2019-05-02T17:13:21.645Z,21.00
2019-05-02T17:15:52.576Z,21.97
2019-05-02T17:18:23.667Z,20.97
2019-05-02T17:20:56.757Z,20.90
2019-05-02T17:23:27.240Z,21.57
2019-05-02T17:25:58.233Z,20.60
2019-05-02T17:28:29.191Z,22.37
2019-05-02T17:31:00.269Z,21.83
2019-05-02T17:33:32.380Z,20.83
2019-05-02T17:36:03.868Z,20.43
2019-05-02T17:38:34.835Z,20.07
2019-05-02T17:41:07.977Z,21.63
2019-05-02T17:43:42.154Z,20.60
2019-05-02T17:46:12.661Z,21.57
2019-05-02T17:48:47.812Z,21.47
2019-05-02T17:51:37.676Z,21.03
2019-05-02T17:54:08.615Z,20.30
2019-05-02T17:56:44.501Z,20.10
2019-05-02T18:08:21.761Z,21.67
2019-05-02T18:10:58.557Z,21.47
2019-05-02T18:13:29.278Z,21.80
2019-05-02T18:15:57.666Z,21.50
2019-05-02T18:18:28.637Z,22.67
2019-05-02T18:20:59.485Z,25.60
2019-05-02T18:23:32.266Z,22.10
2019-05-02T18:26:06.202Z,23.10
2019-05-02T18:28:46.216Z,23.57
2019-05-02T18:31:08.552Z,22.87
2019-05-02T18:33:41.028Z,24.77
2019-05-02T18:36:12.174Z,24.63
2019-05-02T18:38:43.117Z,24.13
2019-05-02T18:41:15.870Z,25.73
2019-05-02T18:43:46.999Z,25.20
2019-05-02T18:46:19.914Z,25.37
2019-05-02T18:48:51.884Z,26.73
2019-05-02T18:51:23.610Z,24.90
2019-05-02T18:53:57.897Z,24.10
2019-05-02T18:56:27.501Z,26.07
2019-05-02T18:59:02.650Z,24.40
2019-05-02T19:01:35.045Z,24.10
2019-05-02T19:04:09.623Z,23.27
2019-05-02T19:06:42.083Z,24.13
2019-05-02T19:09:17.461Z,25.83
2019-05-02T19:11:46.137Z,26.73
2019-05-02T19:14:22.209Z,27.33
2019-05-02T19:16:49.799Z,24.97
2019-05-02T19:19:22.460Z,25.07
2019-05-02T19:21:54.248Z,23.40
2019-05-02T19:24:27.446Z,23.03
2019-05-02T19:26:58.108Z,22.93
2019-05-02T19:29:31.870Z,23.00
2019-05-02T19:32:04.918Z,21.60
2019-05-02T19:37:13.329Z,15.83
2019-05-02T19:39:48.718Z,16.00
2019-05-02T19:42:22.589Z,15.03
2019-05-02T19:44:52.830Z,12.20
2019-05-02T19:47:23.795Z,7.30
2019-05-02T19:49:54.684Z,6.23
2019-05-02T19:52:28.593Z,5.50
2019-05-02T19:55:14.022Z,4.53
2019-05-02T19:57:43.211Z,4.30
2019-05-02T20:00:14.068Z,4.47
2019-05-02T20:02:46.335Z,3.57
2019-05-02T20:05:24.121Z,3.73
2019-05-02T20:07:52.016Z,3.37
2019-05-02T20:10:23.053Z,3.30
2019-05-02T20:12:54.140Z,5.13
2019-05-02T20:15:27.379Z,3.77
2019-05-02T20:18:00.614Z,3.30
2019-05-02T20:20:52.052Z,3.57
2019-05-02T20:23:28.683Z,2.60
2019-05-02T20:25:57.232Z,3.00
2019-05-02T20:28:28.147Z,3.10
2019-05-02T20:30:59.225Z,3.27
2019-05-02T20:33:34.616Z,2.70
2019-05-02T20:36:12.316Z,2.40
2019-05-02T20:38:43.414Z,2.20
2019-05-02T20:41:14.287Z,2.40
2019-05-02T20:43:45.235Z,2.13
2019-05-02T20:46:17.486Z,2.40
2019-05-02T20:48:48.556Z,2.10
2019-05-02T20:51:22.712Z,2.13
2019-05-02T20:53:55.237Z,2.40
2019-05-02T20:56:26.189Z,1.93
2019-05-02T20:58:57.075Z,2.20
2019-05-02T21:01:27.939Z,2.40
2019-05-02T21:03:59.988Z,2.50
2019-05-02T21:06:41.972Z,2.20
2019-05-02T21:09:24.512Z,2.73
2019-05-02T21:12:02.078Z,2.47
2019-05-02T21:14:33.056Z,2.60
2019-05-02T21:17:04.159Z,2.70
2019-05-02T21:19:35.032Z,3.00
2019-05-02T21:22:12.052Z,3.10
2019-05-02T21:24:42.915Z,2.83
2019-05-02T21:27:13.688Z,2.70
2019-05-02T21:29:44.493Z,2.70
2019-05-02T21:32:15.423Z,3.07
2019-05-02T21:34:46.194Z,2.40
2019-05-02T21:37:17.211Z,3.00
2019-05-02T21:39:48.242Z,2.90
2019-05-02T21:42:19.037Z,3.00
2019-05-02T21:44:51.809Z,3.10
2019-05-02T21:47:22.988Z,3.13
2019-05-02T21:50:08.535Z,3.00
2019-05-02T21:53:04.626Z,3.30
2019-05-02T21:55:48.073Z,3.43
2019-05-02T21:58:18.895Z,3.70
2019-05-02T22:01:12.985Z,3.33
2019-05-02T22:03:43.970Z,3.10
2019-05-02T22:06:15.883Z,3.07
2019-05-02T22:08:46.699Z,3.20
2019-05-02T22:11:17.481Z,2.80
2019-05-02T22:13:48.292Z,2.90
2019-05-02T22:16:19.063Z,2.80
2019-05-02T22:18:49.957Z,2.30
2019-05-02T22:21:23.495Z,3.27
2019-05-02T22:23:54.371Z,3.03
2019-05-02T22:26:25.236Z,3.00
2019-05-02T22:28:55.983Z,2.70
2019-05-02T22:31:26.794Z,3.13
2019-05-02T22:33:58.644Z,3.00
2019-05-02T22:36:29.459Z,2.70
2019-05-02T22:39:17.844Z,2.90
2019-05-02T22:41:48.627Z,2.80
2019-05-02T22:44:19.415Z,2.50
2019-05-02T22:46:52.163Z,2.53
2019-05-02T22:49:22.900Z,2.40
2019-05-02T22:51:53.790Z,3.23
2019-05-02T22:54:30.338Z,2.87
2019-05-02T22:56:57.566Z,2.77
2019-05-02T22:59:28.896Z,3.17
2019-05-02T23:02:02.127Z,3.30
2019-05-02T23:04:33.101Z,2.70
2019-05-02T23:07:03.945Z,2.70
2019-05-02T23:09:34.735Z,3.27
2019-05-02T23:12:06.007Z,2.87
2019-05-02T23:14:36.991Z,3.13
2019-05-02T23:17:07.760Z,2.80
2019-05-02T23:19:38.523Z,3.03
2019-05-02T23:22:09.412Z,2.70
2019-05-02T23:25:14.431Z,3.17
2019-05-02T23:27:56.240Z,2.67
2019-05-02T23:30:27.096Z,3.10
2019-05-02T23:32:57.926Z,3.33
2019-05-02T23:35:28.816Z,2.97
2019-05-02T23:37:59.629Z,3.03
2019-05-02T23:40:30.423Z,3.60
2019-05-02T23:43:01.880Z,4.10
2019-05-02T23:45:32.855Z,3.53
2019-05-02T23:48:04.345Z,3.43
2019-05-02T23:50:35.124Z,3.70
2019-05-02T23:53:05.948Z,3.13
2019-05-02T23:55:36.806Z,2.87
2019-05-02T23:58:07.592Z,3.07
